sensor_id;sensor_type;location;lat;lon;timestamp;pressure;altitude;pressure_sealevel;temperature;humidity
17855;BME280;9053;53.358;6.382;2022-11-15T00:01:06;100840.53;;;9.45;100.00
17855;BME280;9053;53.358;6.382;2022-11-15T00:03:36;100832.66;;;9.45;100.00
17855;BME280;9053;53.358;6.382;2022-11-15T00:06:06;100826.56;;;9.46;100.00
17855;BME280;9053;53.358;6.382;2022-11-15T00:08:36;100837.94;;;9.47;100.00
17855;BME280;9053;53.358;6.382;2022-11-15T00:11:11;100830.94;;;9.47;100.00
17855;BME280;9053;53.358;6.382;2022-11-15T00:13:41;100841.47;;;9.47;100.00
17855;BME280;9053;53.358;6.382;2022-11-15T00:16:11;100834.50;;;9.48;100.00
17855;BME280;9053;53.358;6.382;2022-11-15T00:18:41;100842.41;;;9.49;100.00
17855;BME280;9053;53.358;6.382;2022-11-15T00:21:16;100831.03;;;9.49;100.00
17855;BME280;9053;53.358;6.382;2022-11-15T00:23:46;100830.13;;;9.48;100.00
17855;BME280;9053;53.358;6.382;2022-11-15T00:26:19;100818.75;;;9.48;100.00
17855;BME280;9053;53.358;6.382;2022-11-15T00:28:51;100822.19;;;9.47;100.00
17855;BME280;9053;53.358;6.382;2022-11-15T00:31:21;100821.31;;;9.46;100.00
17855;BME280;9053;53.358;6.382;2022-11-15T00:33:51;100810.69;;;9.43;100.00
17855;BME280;9053;53.358;6.382;2022-11-15T00:36:21;100818.50;;;9.42;100.00
17855;BME280;9053;53.358;6.382;2022-11-15T00:38:50;100807.88;;;9.39;100.00
17855;BME280;9053;53.358;6.382;2022-11-15T00:41:23;100809.53;;;9.35;100.00
17855;BME280;9053;53.358;6.382;2022-11-15T00:43:52;100811.19;;;9.33;100.00
17855;BME280;9053;53.358;6.382;2022-11-15T00:46:22;100800.56;;;9.30;100.00
17855;BME280;9053;53.358;6.382;2022-11-15T00:48:52;100802.06;;;9.23;100.00
17855;BME280;9053;53.358;6.382;2022-11-15T00:51:22;100796.69;;;9.20;100.00
17855;BME280;9053;53.358;6.382;2022-11-15T00:53:51;100804.38;;;9.16;100.00
17855;BME280;9053;53.358;6.382;2022-11-15T00:56:25;100804.19;;;9.11;100.00
17855;BME280;9053;53.358;6.382;2022-11-15T00:58:55;100795.25;;;9.06;100.00
17855;BME280;9053;53.358;6.382;2022-11-15T01:01:24;100793.41;;;9.03;100.00
17855;BME280;9053;53.358;6.382;2022-11-15T01:03:54;100798.66;;;9.03;100.00
17855;BME280;9053;53.358;6.382;2022-11-15T01:06:27;100788.16;;;9.03;100.00
17855;BME280;9053;53.358;6.382;2022-11-15T01:08:57;100786.38;;;9.02;100.00
17855;BME280;9053;53.358;6.382;2022-11-15T01:11:29;100779.34;;;9.01;100.00
17855;BME280;9053;53.358;6.382;2022-11-15T01:13:59;100782.84;;;9.02;100.00
17855;BME280;9053;53.358;6.382;2022-11-15T01:16:28;100775.91;;;9.02;100.00
17855;BME280;9053;53.358;6.382;2022-11-15T01:18:59;100771.53;;;9.03;100.00
17855;BME280;9053;53.358;6.382;2022-11-15T01:21:29;100768.13;;;9.05;100.00
17855;BME280;9053;53.358;6.382;2022-11-15T01:23:59;100769.97;;;9.08;100.00
17855;BME280;9053;53.358;6.382;2022-11-15T01:26:31;100762.16;;;9.09;100.00
17855;BME280;9053;53.358;6.382;2022-11-15T01:29:01;100764.78;;;9.09;100.00
17855;BME280;9053;53.358;6.382;2022-11-15T01:31:31;100756.91;;;9.09;100.00
17855;BME280;9053;53.358;6.382;2022-11-15T01:34:01;100755.25;;;9.12;100.00
17855;BME280;9053;53.358;6.382;2022-11-15T01:36:30;100759.69;;;9.13;100.00
17855;BME280;9053;53.358;6.382;2022-11-15T01:39:00;100741.31;;;9.13;100.00
17855;BME280;9053;53.358;6.382;2022-11-15T01:41:33;100742.19;;;9.13;100.00
17855;BME280;9053;53.358;6.382;2022-11-15T01:47:05;100741.31;;;9.13;100.00
17855;BME280;9053;53.358;6.382;2022-11-15T01:49:39;100730.81;;;9.13;100.00
17855;BME280;9053;53.358;6.382;2022-11-15T01:52:16;100733.44;;;9.13;100.00
17855;BME280;9053;53.358;6.382;2022-11-15T01:54:52;100738.63;;;9.11;100.00
17855;BME280;9053;53.358;6.382;2022-11-15T01:57:25;100736.75;;;9.08;100.00
17855;BME280;9053;53.358;6.382;2022-11-15T01:59:57;100732.41;;;9.09;100.00
17855;BME280;9053;53.358;6.382;2022-11-15T02:02:30;100731.53;;;9.08;100.00
17855;BME280;9053;53.358;6.382;2022-11-15T02:05:00;100736.69;;;9.07;100.00
17855;BME280;9053;53.358;6.382;2022-11-15T02:07:32;100734.81;;;9.03;100.00
17855;BME280;9053;53.358;6.382;2022-11-15T02:10:07;100733.94;;;9.02;100.00
17855;BME280;9053;53.358;6.382;2022-11-15T02:12:40;100727.75;;;9.02;100.00
17855;BME280;9053;53.358;6.382;2022-11-15T02:15:11;100725.97;;;9.01;100.00
17855;BME280;9053;53.358;6.382;2022-11-15T02:17:51;100719.84;;;9.00;100.00
17855;BME280;9053;53.358;6.382;2022-11-15T02:20:41;100723.28;;;8.99;100.00
17855;BME280;9053;53.358;6.382;2022-11-15T02:23:49;100729.31;;;8.97;100.00
17855;BME280;9053;53.358;6.382;2022-11-15T02:26:45;100719.75;;;8.97;100.00
17855;BME280;9053;53.358;6.382;2022-11-15T02:29:30;100726.69;;;8.97;100.00
17855;BME280;9053;53.358;6.382;2022-11-15T02:32:14;100723.19;;;8.96;100.00
17855;BME280;9053;53.358;6.382;2022-11-15T02:34:54;100715.38;;;8.98;100.00
17855;BME280;9053;53.358;6.382;2022-11-15T02:37:31;100703.03;;;8.95;100.00
17855;BME280;9053;53.358;6.382;2022-11-15T02:40:07;100709.94;;;8.93;100.00
17855;BME280;9053;53.358;6.382;2022-11-15T02:42:42;100711.69;;;8.93;100.00
17855;BME280;9053;53.358;6.382;2022-11-15T02:45:37;100702.88;;;8.91;100.00
17855;BME280;9053;53.358;6.382;2022-11-15T02:48:12;100707.25;;;8.92;100.00
17855;BME280;9053;53.358;6.382;2022-11-15T02:50:43;100705.56;;;8.92;100.00
17855;BME280;9053;53.358;6.382;2022-11-15T02:53:14;100707.34;;;8.93;100.00
17855;BME280;9053;53.358;6.382;2022-11-15T02:55:46;100710.91;;;8.95;100.00
17855;BME280;9053;53.358;6.382;2022-11-15T02:58:37;100701.19;;;8.93;100.00
17855;BME280;9053;53.358;6.382;2022-11-15T03:01:15;100699.34;;;8.90;100.00
17855;BME280;9053;53.358;6.382;2022-11-15T03:04:00;100712.47;;;8.90;100.00
17855;BME280;9053;53.358;6.382;2022-11-15T03:06:37;100702.88;;;8.91;100.00
17855;BME280;9053;53.358;6.382;2022-11-15T03:09:19;100697.63;;;8.91;100.00
17855;BME280;9053;53.358;6.382;2022-11-15T03:11:57;100696.72;;;8.90;100.00
17855;BME280;9053;53.358;6.382;2022-11-15T03:14:31;100694.09;;;8.90;100.00
17855;BME280;9053;53.358;6.382;2022-11-15T03:17:08;100688.00;;;8.91;100.00
17855;BME280;9053;53.358;6.382;2022-11-15T03:19:46;100693.25;;;8.91;100.00
17855;BME280;9053;53.358;6.382;2022-11-15T03:22:19;100693.25;;;8.91;100.00
17855;BME280;9053;53.358;6.382;2022-11-15T03:24:53;100696.78;;;8.92;100.00
17855;BME280;9053;53.358;6.382;2022-11-15T03:27:29;100683.66;;;8.92;100.00
17855;BME280;9053;53.358;6.382;2022-11-15T03:30:03;100678.47;;;8.93;100.00
17855;BME280;9053;53.358;6.382;2022-11-15T03:32:38;100674.19;;;8.95;100.00
17855;BME280;9053;53.358;6.382;2022-11-15T03:35:15;100674.31;;;8.98;100.00
17855;BME280;9053;53.358;6.382;2022-11-15T03:37:51;100675.25;;;9.00;100.00
17855;BME280;9053;53.358;6.382;2022-11-15T03:40:25;100677.03;;;9.01;100.00
17855;BME280;9053;53.358;6.382;2022-11-15T03:43:04;100675.28;;;9.02;100.00
17855;BME280;9053;53.358;6.382;2022-11-15T03:45:41;100666.66;;;9.04;100.00
17855;BME280;9053;53.358;6.382;2022-11-15T03:48:16;100664.09;;;9.06;100.00
17855;BME280;9053;53.358;6.382;2022-11-15T03:50:51;100665.88;;;9.07;100.00
17855;BME280;9053;53.358;6.382;2022-11-15T03:53:21;100663.31;;;9.08;100.00
17855;BME280;9053;53.358;6.382;2022-11-15T03:55:51;100664.28;;;9.10;100.00
17855;BME280;9053;53.358;6.382;2022-11-15T03:58:23;100662.47;;;9.09;100.00
17855;BME280;9053;53.358;6.382;2022-11-15T04:00:53;100663.41;;;9.12;100.00
17855;BME280;9053;53.358;6.382;2022-11-15T04:03:23;100659.06;;;9.12;100.00
17855;BME280;9053;53.358;6.382;2022-11-15T04:05:55;100656.56;;;9.15;100.00
17855;BME280;9053;53.358;6.382;2022-11-15T04:08:25;100653.97;;;9.17;100.00
17855;BME280;9053;53.358;6.382;2022-11-15T04:10:55;100650.53;;;9.18;100.00
17855;BME280;9053;53.358;6.382;2022-11-15T04:13:27;100647.94;;;9.19;100.00
17855;BME280;9053;53.358;6.382;2022-11-15T04:15:58;100640.16;;;9.21;100.00
17855;BME280;9053;53.358;6.382;2022-11-15T04:18:27;100648.09;;;9.22;100.00
17855;BME280;9053;53.358;6.382;2022-11-15T04:21:00;100639.38;;;9.23;100.00
17855;BME280;9053;53.358;6.382;2022-11-15T04:23:42;100638.47;;;9.23;100.00
17855;BME280;9053;53.358;6.382;2022-11-15T04:26:27;100648.19;;;9.25;100.00
17855;BME280;9053;53.358;6.382;2022-11-15T04:28:57;100634.22;;;9.26;100.00
17855;BME280;9053;53.358;6.382;2022-11-15T04:31:39;100647.34;;;9.26;100.00
17855;BME280;9053;53.358;6.382;2022-11-15T04:34:08;100651.88;;;9.30;100.00
17855;BME280;9053;53.358;6.382;2022-11-15T04:36:41;100648.41;;;9.31;100.00
17855;BME280;9053;53.358;6.382;2022-11-15T04:39:23;100645.84;;;9.33;100.00
17855;BME280;9053;53.358;6.382;2022-11-15T04:41:54;100644.03;;;9.32;100.00
17855;BME280;9053;53.358;6.382;2022-11-15T04:44:23;100645.84;;;9.33;100.00
17855;BME280;9053;53.358;6.382;2022-11-15T04:46:53;100646.72;;;9.34;100.00
17855;BME280;9053;53.358;6.382;2022-11-15T04:49:23;100648.50;;;9.35;100.00
17855;BME280;9053;53.358;6.382;2022-11-15T04:51:55;100641.56;;;9.35;100.00
17855;BME280;9053;53.358;6.382;2022-11-15T04:54:26;100639.75;;;9.34;100.00
17855;BME280;9053;53.358;6.382;2022-11-15T04:56:55;100642.38;;;9.34;100.00
17855;BME280;9053;53.358;6.382;2022-11-15T04:59:25;100640.69;;;9.36;100.00
17855;BME280;9053;53.358;6.382;2022-11-15T05:01:55;100641.66;;;9.38;100.00
17855;BME280;9053;53.358;6.382;2022-11-15T05:04:26;100629.41;;;9.39;100.00
17855;BME280;9053;53.358;6.382;2022-11-15T05:06:55;100639.97;;;9.40;100.00
17855;BME280;9053;53.358;6.382;2022-11-15T05:09:25;100640.88;;;9.41;100.00
17855;BME280;9053;53.358;6.382;2022-11-15T05:11:55;100622.53;;;9.42;100.00
17855;BME280;9053;53.358;6.382;2022-11-15T05:14:25;100630.41;;;9.42;100.00
17855;BME280;9053;53.358;6.382;2022-11-15T05:16:55;100633.16;;;9.45;100.00
17855;BME280;9053;53.358;6.382;2022-11-15T05:19:25;100627.06;;;9.46;100.00
17855;BME280;9053;53.358;6.382;2022-11-15T05:21:58;100621.88;;;9.48;100.00
17855;BME280;9053;53.358;6.382;2022-11-15T05:24:29;100619.28;;;9.49;100.00
17855;BME280;9053;53.358;6.382;2022-11-15T05:26:59;100620.22;;;9.51;100.00
17855;BME280;9053;53.358;6.382;2022-11-15T05:29:28;100627.31;;;9.54;100.00
17855;BME280;9053;53.358;6.382;2022-11-15T05:31:58;100625.53;;;9.53;100.00
17855;BME280;9053;53.358;6.382;2022-11-15T05:34:28;100615.94;;;9.53;100.00
17855;BME280;9053;53.358;6.382;2022-11-15T05:37:01;100618.66;;;9.57;100.00
17855;BME280;9053;53.358;6.382;2022-11-15T05:39:31;100624.78;;;9.57;100.00
17855;BME280;9053;53.358;6.382;2022-11-15T05:42:04;100623.19;;;9.61;100.00
17855;BME280;9053;53.358;6.382;2022-11-15T05:44:39;100625.00;;;9.63;100.00
17855;BME280;9053;53.358;6.382;2022-11-15T05:47:13;100627.66;;;9.65;100.00
17855;BME280;9053;53.358;6.382;2022-11-15T05:49:46;100629.47;;;9.66;100.00
17855;BME280;9053;53.358;6.382;2022-11-15T05:52:23;100639.22;;;9.70;100.00
17855;BME280;9053;53.358;6.382;2022-11-15T05:54:55;100639.28;;;9.71;100.00
17855;BME280;9053;53.358;6.382;2022-11-15T05:57:26;100642.88;;;9.73;100.00
17855;BME280;9053;53.358;6.382;2022-11-15T05:59:56;100637.66;;;9.75;100.00
17855;BME280;9053;53.358;6.382;2022-11-15T06:02:26;100640.41;;;9.78;100.00
17855;BME280;9053;53.358;6.382;2022-11-15T06:04:55;100637.81;;;9.80;100.00
17855;BME280;9053;53.358;6.382;2022-11-15T06:07:28;100645.75;;;9.81;100.00
17855;BME280;9053;53.358;6.382;2022-11-15T06:09:58;100642.28;;;9.82;100.00
17855;BME280;9053;53.358;6.382;2022-11-15T06:12:28;100640.56;;;9.83;100.00
17855;BME280;9053;53.358;6.382;2022-11-15T06:14:58;100641.47;;;9.85;100.00
17855;BME280;9053;53.358;6.382;2022-11-15T06:17:28;100644.16;;;9.86;100.00
17855;BME280;9053;53.358;6.382;2022-11-15T06:19:58;100653.00;;;9.88;100.00
17855;BME280;9053;53.358;6.382;2022-11-15T06:22:30;100653.88;;;9.89;100.00
17855;BME280;9053;53.358;6.382;2022-11-15T06:25:00;100648.69;;;9.90;100.00
17855;BME280;9053;53.358;6.382;2022-11-15T06:27:31;100648.72;;;9.92;100.00
17855;BME280;9053;53.358;6.382;2022-11-15T06:30:01;100649.69;;;9.94;100.00
17855;BME280;9053;53.358;6.382;2022-11-15T06:32:31;100655.00;;;9.95;100.00
17855;BME280;9053;53.358;6.382;2022-11-15T06:35:00;100655.91;;;9.97;100.00
17855;BME280;9053;53.358;6.382;2022-11-15T06:37:34;100659.47;;;9.98;100.00
17855;BME280;9053;53.358;6.382;2022-11-15T06:40:05;100660.38;;;10.00;100.00
17855;BME280;9053;53.358;6.382;2022-11-15T06:42:35;100648.16;;;10.01;100.00
17855;BME280;9053;53.358;6.382;2022-11-15T06:45:05;100649.03;;;10.01;100.00
17855;BME280;9053;53.358;6.382;2022-11-15T06:47:35;100656.06;;;10.02;100.00
17855;BME280;9053;53.358;6.382;2022-11-15T06:50:06;100653.50;;;10.04;100.00
17855;BME280;9053;53.358;6.382;2022-11-15T06:52:39;100661.41;;;10.05;100.00
17855;BME280;9053;53.358;6.382;2022-11-15T06:55:08;100658.00;;;10.08;100.00
17855;BME280;9053;53.358;6.382;2022-11-15T06:57:46;100654.56;;;10.10;100.00
17855;BME280;9053;53.358;6.382;2022-11-15T07:00:17;100661.66;;;10.13;100.00
17855;BME280;9053;53.358;6.382;2022-11-15T07:02:48;100653.78;;;10.13;100.00
17855;BME280;9053;53.358;6.382;2022-11-15T07:05:17;100658.28;;;10.15;100.00
17855;BME280;9053;53.358;6.382;2022-11-15T07:07:54;100666.25;;;10.18;100.00
17855;BME280;9053;53.358;6.382;2022-11-15T07:10:24;100659.25;;;10.19;100.00
17855;BME280;9053;53.358;6.382;2022-11-15T07:12:55;100656.72;;;10.22;100.00
17855;BME280;9053;53.358;6.382;2022-11-15T07:15:26;100661.16;;;10.23;100.00
17855;BME280;9053;53.358;6.382;2022-11-15T07:17:55;100662.13;;;10.27;100.00
17855;BME280;9053;53.358;6.382;2022-11-15T07:20:29;100668.38;;;10.29;100.00
17855;BME280;9053;53.358;6.382;2022-11-15T07:23:03;100663.13;;;10.30;100.00
17855;BME280;9053;53.358;6.382;2022-11-15T07:25:33;100676.41;;;10.33;100.00
17855;BME280;9053;53.358;6.382;2022-11-15T07:28:03;100674.66;;;10.34;100.00
17855;BME280;9053;53.358;6.382;2022-11-15T07:30:34;100682.72;;;10.38;100.00
17855;BME280;9053;53.358;6.382;2022-11-15T07:33:10;100684.47;;;10.39;100.00
17855;BME280;9053;53.358;6.382;2022-11-15T07:35:40;100683.63;;;10.40;100.00
17855;BME280;9053;53.358;6.382;2022-11-15T07:38:16;100679.38;;;10.44;100.00
17855;BME280;9053;53.358;6.382;2022-11-15T07:40:55;100672.44;;;10.46;100.00
17855;BME280;9053;53.358;6.382;2022-11-15T07:43:25;100678.66;;;10.50;100.00
17855;BME280;9053;53.358;6.382;2022-11-15T07:45:56;100680.50;;;10.52;100.00
17855;BME280;9053;53.358;6.382;2022-11-15T07:48:26;100684.06;;;10.54;100.00
17855;BME280;9053;53.358;6.382;2022-11-15T07:51:11;100683.28;;;10.57;100.00
17855;BME280;9053;53.358;6.382;2022-11-15T07:53:44;100680.72;;;10.60;100.00
17855;BME280;9053;53.358;6.382;2022-11-15T07:56:14;100678.19;;;10.63;100.00
17855;BME280;9053;53.358;6.382;2022-11-15T07:58:45;100675.69;;;10.66;100.00
17855;BME280;9053;53.358;6.382;2022-11-15T08:01:16;100679.28;;;10.70;100.00
17855;BME280;9053;53.358;6.382;2022-11-15T08:03:46;100679.38;;;10.73;100.00
17855;BME280;9053;53.358;6.382;2022-11-15T08:06:16;100683.84;;;10.75;100.00
17855;BME280;9053;53.358;6.382;2022-11-15T08:08:49;100686.53;;;10.78;100.00
17855;BME280;9053;53.358;6.382;2022-11-15T08:11:19;100684.03;;;10.81;100.00
17855;BME280;9053;53.358;6.382;2022-11-15T08:13:48;100694.66;;;10.85;100.00
17855;BME280;9053;53.358;6.382;2022-11-15T08:16:18;100694.81;;;10.91;100.00
17855;BME280;9053;53.358;6.382;2022-11-15T08:18:48;100693.44;;;11.03;100.00
17855;BME280;9053;53.358;6.382;2022-11-15T08:21:19;100689.31;;;11.12;100.00
17855;BME280;9053;53.358;6.382;2022-11-15T08:23:51;100694.72;;;11.16;100.00
17855;BME280;9053;53.358;6.382;2022-11-15T08:26:21;100698.25;;;11.18;100.00
17855;BME280;9053;53.358;6.382;2022-11-15T08:28:51;100687.84;;;11.21;100.00
17855;BME280;9053;53.358;6.382;2022-11-15T08:31:21;100693.19;;;11.24;100.00
17855;BME280;9053;53.358;6.382;2022-11-15T08:33:51;100692.31;;;11.25;100.00
17855;BME280;9053;53.358;6.382;2022-11-15T08:36:21;100692.38;;;11.27;100.00
17855;BME280;9053;53.358;6.382;2022-11-15T08:38:53;100681.88;;;11.29;100.00
17855;BME280;9053;53.358;6.382;2022-11-15T08:41:27;100682.81;;;11.31;100.00
17855;BME280;9053;53.358;6.382;2022-11-15T08:43:57;100682.81;;;11.31;100.00
17855;BME280;9053;53.358;6.382;2022-11-15T08:46:27;100677.59;;;11.32;100.00
17855;BME280;9053;53.358;6.382;2022-11-15T08:48:57;100682.06;;;11.35;100.00
17855;BME280;9053;53.358;6.382;2022-11-15T08:51:27;100676.81;;;11.36;100.00
17855;BME280;9053;53.358;6.382;2022-11-15T08:53:59;100668.13;;;11.39;100.00
17855;BME280;9053;53.358;6.382;2022-11-15T08:56:29;100665.59;;;11.42;100.00
17855;BME280;9053;53.358;6.382;2022-11-15T08:58:59;100658.66;;;11.45;100.00
17855;BME280;9053;53.358;6.382;2022-11-15T09:01:29;100660.56;;;11.51;100.00
17855;BME280;9053;53.358;6.382;2022-11-15T09:03:59;100658.91;;;11.55;100.00
17855;BME280;9053;53.358;6.382;2022-11-15T09:06:30;100659.06;;;11.59;100.00
17855;BME280;9053;53.358;6.382;2022-11-15T09:09:03;100652.16;;;11.64;100.00
17855;BME280;9053;53.358;6.382;2022-11-15T09:11:33;100658.44;;;11.69;100.00
17855;BME280;9053;53.358;6.382;2022-11-15T09:14:02;100644.47;;;11.74;100.00
17855;BME280;9053;53.358;6.382;2022-11-15T09:16:32;100637.56;;;11.79;100.00
17855;BME280;9053;53.358;6.382;2022-11-15T09:19:02;100639.44;;;11.83;100.00
17855;BME280;9053;53.358;6.382;2022-11-15T09:21:37;100643.91;;;11.85;100.00
17855;BME280;9053;53.358;6.382;2022-11-15T09:24:10;100637.84;;;11.88;100.00
17855;BME280;9053;53.358;6.382;2022-11-15T09:26:39;100641.44;;;11.90;100.00
17855;BME280;9053;53.358;6.382;2022-11-15T09:29:09;100647.66;;;11.94;100.00
17855;BME280;9053;53.358;6.382;2022-11-15T09:31:39;100648.59;;;11.96;100.00
17855;BME280;9053;53.358;6.382;2022-11-15T09:34:09;100644.19;;;11.96;100.00
17855;BME280;9053;53.358;6.382;2022-11-15T09:36:39;100638.97;;;11.98;100.00
17855;BME280;9053;53.358;6.382;2022-11-15T09:39:11;100646.91;;;11.99;100.00
17855;BME280;9053;53.358;6.382;2022-11-15T09:41:58;100646.91;;;11.99;100.00
17855;BME280;9053;53.358;6.382;2022-11-15T09:44:42;100642.56;;;12.00;100.00
17855;BME280;9053;53.358;6.382;2022-11-15T09:50:35;100652.19;;;11.99;100.00
17855;BME280;9053;53.358;6.382;2022-11-15T09:53:11;100646.03;;;11.99;100.00
17855;BME280;9053;53.358;6.382;2022-11-15T09:55:50;100650.47;;;12.01;100.00
17855;BME280;9053;53.358;6.382;2022-11-15T09:58:28;100641.75;;;12.04;100.00
17855;BME280;9053;53.358;6.382;2022-11-15T10:01:06;100634.78;;;12.06;100.00
17855;BME280;9053;53.358;6.382;2022-11-15T10:03:39;100635.72;;;12.08;100.00
17855;BME280;9053;53.358;6.382;2022-11-15T10:06:18;100627.88;;;12.11;100.00
17855;BME280;9053;53.358;6.382;2022-11-15T10:08:55;100628.06;;;12.19;100.00
17855;BME280;9053;53.358;6.382;2022-11-15T10:11:31;100622.09;;;12.26;100.00
17855;BME280;9053;53.358;6.382;2022-11-15T10:14:10;100622.19;;;12.30;100.00
17855;BME280;9053;53.358;6.382;2022-11-15T10:17:01;100622.31;;;12.35;100.00
17855;BME280;9053;53.358;6.382;2022-11-15T10:19:36;100628.53;;;12.39;100.00
17855;BME280;9053;53.358;6.382;2022-11-15T10:22:20;100623.38;;;12.43;100.00
17855;BME280;9053;53.358;6.382;2022-11-15T10:25:06;100626.06;;;12.46;100.00
17855;BME280;9053;53.358;6.382;2022-11-15T10:27:54;100613.81;;;12.48;100.00
17855;BME280;9053;53.358;6.382;2022-11-15T10:30:32;100606.84;;;12.52;100.00
17855;BME280;9053;53.358;6.382;2022-11-15T10:33:22;100606.09;;;12.58;100.00
17855;BME280;9053;53.358;6.382;2022-11-15T10:36:18;100595.56;;;12.58;100.00
17855;BME280;9053;53.358;6.382;2022-11-15T10:38:56;100588.59;;;12.61;100.00
17855;BME280;9053;53.358;6.382;2022-11-15T10:41:32;100589.53;;;12.65;100.00
17855;BME280;9053;53.358;6.382;2022-11-15T10:44:29;100592.25;;;12.69;100.00
17855;BME280;9053;53.358;6.382;2022-11-15T10:47:21;100586.22;;;12.73;100.00
17855;BME280;9053;53.358;6.382;2022-11-15T10:50:05;100591.50;;;12.75;100.00
17855;BME280;9053;53.358;6.382;2022-11-15T10:52:36;100589.84;;;12.78;100.00
17855;BME280;9053;53.358;6.382;2022-11-15T10:55:22;100588.22;;;12.85;100.00
17855;BME280;9053;53.358;6.382;2022-11-15T10:57:55;100587.41;;;12.89;100.00
17855;BME280;9053;53.358;6.382;2022-11-15T11:00:32;100588.38;;;12.93;100.00
17855;BME280;9053;53.358;6.382;2022-11-15T11:03:03;100582.28;;;12.97;100.00
17855;BME280;9053;53.358;6.382;2022-11-15T11:05:35;100585.78;;;12.97;100.00
17855;BME280;9053;53.358;6.382;2022-11-15T11:08:22;100584.09;;;12.99;100.00
17855;BME280;9053;53.358;6.382;2022-11-15T11:10:53;100579.69;;;13.00;100.00
17855;BME280;9053;53.358;6.382;2022-11-15T11:13:30;100577.09;;;13.02;100.00
17855;BME280;9053;53.358;6.382;2022-11-15T11:16:17;100575.38;;;13.04;100.00
17855;BME280;9053;53.358;6.382;2022-11-15T11:18:55;100572.75;;;13.05;100.00
17855;BME280;9053;53.358;6.382;2022-11-15T11:21:33;100578.13;;;13.10;100.00
17855;BME280;9053;53.358;6.382;2022-11-15T11:24:13;100572.94;;;13.14;100.00
17855;BME280;9053;53.358;6.382;2022-11-15T11:26:52;100573.06;;;13.20;100.00
17855;BME280;9053;53.358;6.382;2022-11-15T11:29:36;100580.28;;;13.29;100.00
17855;BME280;9053;53.358;6.382;2022-11-15T11:32:33;100573.31;;;13.33;100.00
17855;BME280;9053;53.358;6.382;2022-11-15T11:35:12;100565.50;;;13.39;100.00
17855;BME280;9053;53.358;6.382;2022-11-15T11:37:46;100562.91;;;13.42;100.00
17855;BME280;9053;53.358;6.382;2022-11-15T11:40:31;100569.16;;;13.46;100.00
17855;BME280;9053;53.358;6.382;2022-11-15T11:43:10;100555.97;;;13.47;100.00
17855;BME280;9053;53.358;6.382;2022-11-15T11:46:07;100553.34;;;13.49;100.00
17855;BME280;9053;53.358;6.382;2022-11-15T11:48:44;100551.66;;;13.52;100.00
17855;BME280;9053;53.358;6.382;2022-11-15T11:51:18;100549.97;;;13.56;100.00
17855;BME280;9053;53.358;6.382;2022-11-15T11:53:55;100545.56;;;13.58;100.00
17855;BME280;9053;53.358;6.382;2022-11-15T11:56:29;100546.53;;;13.63;100.00
17855;BME280;9053;53.358;6.382;2022-11-15T11:59:05;100548.38;;;13.67;100.00
17855;BME280;9053;53.358;6.382;2022-11-15T12:01:40;100544.00;;;13.69;100.00
17855;BME280;9053;53.358;6.382;2022-11-15T12:04:17;100544.94;;;13.71;100.00
17855;BME280;9053;53.358;6.382;2022-11-15T12:06:52;100550.25;;;13.74;100.00
17855;BME280;9053;53.358;6.382;2022-11-15T12:09:32;100557.38;;;13.78;100.00
17855;BME280;9053;53.358;6.382;2022-11-15T12:12:11;100545.06;;;13.80;100.00
17855;BME280;9053;53.358;6.382;2022-11-15T12:14:47;100552.13;;;13.81;100.00
17855;BME280;9053;53.358;6.382;2022-11-15T12:17:22;100545.06;;;13.80;100.00
17855;BME280;9053;53.358;6.382;2022-11-15T12:19:58;100545.06;;;13.80;100.00
17855;BME280;9053;53.358;6.382;2022-11-15T12:22:39;100538.88;;;13.78;100.00
17855;BME280;9053;53.358;6.382;2022-11-15T12:25:16;100539.72;;;13.77;100.00
17855;BME280;9053;53.358;6.382;2022-11-15T12:27:51;100533.53;;;13.74;100.00
17855;BME280;9053;53.358;6.382;2022-11-15T12:30:25;100529.97;;;13.73;100.00
17855;BME280;9053;53.358;6.382;2022-11-15T12:32:59;100522.88;;;13.71;100.00
17855;BME280;9053;53.358;6.382;2022-11-15T12:35:39;100528.16;;;13.71;100.00
17855;BME280;9053;53.358;6.382;2022-11-15T12:38:10;100524.63;;;13.69;100.00
17855;BME280;9053;53.358;6.382;2022-11-15T12:41:12;100520.22;;;13.69;100.00
17855;BME280;9053;53.358;6.382;2022-11-15T12:43:43;100516.66;;;13.67;100.00
17855;BME280;9053;53.358;6.382;2022-11-15T12:46:20;100517.53;;;13.66;100.00
17855;BME280;9053;53.358;6.382;2022-11-15T12:48:56;100519.31;;;13.67;100.00
17855;BME280;9053;53.358;6.382;2022-11-15T12:54:55;100528.03;;;13.63;100.00
17855;BME280;9053;53.358;6.382;2022-11-15T12:57:31;100522.72;;;13.60;100.00
17855;BME280;9053;53.358;6.382;2022-11-15T13:03:28;100514.03;;;13.67;100.00
17855;BME280;9053;53.358;6.382;2022-11-15T13:06:07;100517.59;;;13.71;100.00
17855;BME280;9053;53.358;6.382;2022-11-15T13:08:49;100507.94;;;13.71;100.00
17855;BME280;9053;53.358;6.382;2022-11-15T13:11:52;100507.84;;;13.68;100.00
17855;BME280;9053;53.358;6.382;2022-11-15T13:14:38;100506.97;;;13.68;100.00
17855;BME280;9053;53.358;6.382;2022-11-15T13:17:25;100507.84;;;13.68;100.00
17855;BME280;9053;53.358;6.382;2022-11-15T13:20:17;100499.09;;;13.69;100.00
17855;BME280;9053;53.358;6.382;2022-11-15T13:22:49;100499.09;;;13.71;100.00
17855;BME280;9053;53.358;6.382;2022-11-15T13:25:52;100498.25;;;13.73;100.00
17855;BME280;9053;53.358;6.382;2022-11-15T13:28:31;100501.81;;;13.74;100.00
17855;BME280;9053;53.358;6.382;2022-11-15T13:31:18;100498.25;;;13.72;100.00
17855;BME280;9053;53.358;6.382;2022-11-15T13:33:49;100491.13;;;13.68;100.00
17855;BME280;9053;53.358;6.382;2022-11-15T13:36:24;100482.31;;;13.67;100.00
17855;BME280;9053;53.358;6.382;2022-11-15T13:38:58;100484.91;;;13.64;100.00
17855;BME280;9053;53.358;6.382;2022-11-15T13:41:29;100484.91;;;13.64;100.00
17855;BME280;9053;53.358;6.382;2022-11-15T13:44:00;100478.72;;;13.62;100.00
17855;BME280;9053;53.358;6.382;2022-11-15T13:46:32;100467.22;;;13.60;100.00